sensor_id;sensor_type;location;lat;lon;timestamp;pressure;altitude;pressure_sealevel;temperature;humidity
6435;BME280;3250;42.694;23.278;2022-11-02T00:01:27;95502.34;;;10.49;81.55
6435;BME280;3250;42.694;23.278;2022-11-02T00:03:53;95513.50;;;10.51;81.32
6435;BME280;3250;42.694;23.278;2022-11-02T00:06:19;95506.22;;;10.53;81.15
6435;BME280;3250;42.694;23.278;2022-11-02T00:08:44;95505.97;;;10.48;82.01
6435;BME280;3250;42.694;23.278;2022-11-02T00:11:10;95507.22;;;10.52;81.67
6435;BME280;3250;42.694;23.278;2022-11-02T00:13:35;95504.75;;;10.44;81.83
6435;BME280;3250;42.694;23.278;2022-11-02T00:16:07;95502.31;;;10.42;81.81
6435;BME280;3250;42.694;23.278;2022-11-02T00:18:35;95482.22;;;10.35;81.41
6435;BME280;3250;42.694;23.278;2022-11-02T00:21:01;95477.34;;;10.32;81.31
6435;BME280;3250;42.694;23.278;2022-11-02T00:23:27;95505.22;;;10.54;81.13
6435;BME280;3250;42.694;23.278;2022-11-02T00:25:55;95496.06;;;10.50;80.94
6435;BME280;3250;42.694;23.278;2022-11-02T00:28:21;95497.06;;;10.49;81.15
6435;BME280;3250;42.694;23.278;2022-11-02T00:30:46;95499.09;;;10.47;80.99
6435;BME280;3250;42.694;23.278;2022-11-02T00:33:12;95498.31;;;10.46;81.26
6435;BME280;3250;42.694;23.278;2022-11-02T00:35:38;95490.16;;;10.41;80.64
6435;BME280;3250;42.694;23.278;2022-11-02T00:38:04;95497.84;;;10.43;81.01
6435;BME280;3250;42.694;23.278;2022-11-02T00:40:30;95490.97;;;10.42;80.91
6435;BME280;3250;42.694;23.278;2022-11-02T00:42:55;95490.53;;;10.38;80.70
6435;BME280;3250;42.694;23.278;2022-11-02T00:45:21;95489.75;;;10.38;81.07
6435;BME280;3250;42.694;23.278;2022-11-02T00:47:47;95495.00;;;10.38;81.04
6435;BME280;3250;42.694;23.278;2022-11-02T00:50:14;95500.28;;;10.38;80.96
6435;BME280;3250;42.694;23.278;2022-11-02T00:52:39;95459.78;;;10.11;81.03
6435;BME280;3250;42.694;23.278;2022-11-02T00:55:07;95494.94;;;10.31;81.56
6435;BME280;3250;42.694;23.278;2022-11-02T00:57:36;95470.31;;;10.11;81.15
6435;BME280;3250;42.694;23.278;2022-11-02T01:00:03;95496.09;;;10.22;81.28
6435;BME280;3250;42.694;23.278;2022-11-02T01:02:29;95490.13;;;10.13;81.56
6435;BME280;3250;42.694;23.278;2022-11-02T01:04:54;95479.41;;;10.08;81.62
6435;BME280;3250;42.694;23.278;2022-11-02T01:07:20;95499.53;;;10.23;81.93
6435;BME280;3250;42.694;23.278;2022-11-02T01:09:45;95481.41;;;10.06;81.46
6435;BME280;3250;42.694;23.278;2022-11-02T01:12:10;95468.03;;;10.01;81.50
6435;BME280;3250;42.694;23.278;2022-11-02T01:14:36;95497.31;;;10.19;81.45
6435;BME280;3250;42.694;23.278;2022-11-02T01:17:02;95488.31;;;10.14;82.00
6435;BME280;3250;42.694;23.278;2022-11-02T01:19:27;95504.94;;;10.14;81.97
6435;BME280;3250;42.694;23.278;2022-11-02T01:21:52;95500.84;;;10.12;81.94
6435;BME280;3250;42.694;23.278;2022-11-02T01:24:18;95449.22;;;9.76;81.92
6435;BME280;3250;42.694;23.278;2022-11-02T01:26:44;95501.22;;;10.02;81.84
6435;BME280;3250;42.694;23.278;2022-11-02T01:29:13;95490.56;;;9.89;81.78
6435;BME280;3250;42.694;23.278;2022-11-02T01:31:38;95484.91;;;9.86;82.25
6435;BME280;3250;42.694;23.278;2022-11-02T01:34:04;95476.34;;;9.77;82.40
6435;BME280;3250;42.694;23.278;2022-11-02T01:36:29;95482.00;;;9.80;82.43
6435;BME280;3250;42.694;23.278;2022-11-02T01:38:54;95485.28;;;9.82;82.20
6435;BME280;3250;42.694;23.278;2022-11-02T01:41:20;95479.38;;;9.80;82.52
6435;BME280;3250;42.694;23.278;2022-11-02T01:43:48;95456.03;;;9.71;82.33
6435;BME280;3250;42.694;23.278;2022-11-02T01:46:21;95468.00;;;9.73;82.43
6435;BME280;3250;42.694;23.278;2022-11-02T01:51:30;95431.19;;;9.45;82.36
6435;BME280;3250;42.694;23.278;2022-11-02T01:54:00;95464.53;;;9.66;82.29
6435;BME280;3250;42.694;23.278;2022-11-02T01:56:29;95468.31;;;9.64;82.43
6435;BME280;3250;42.694;23.278;2022-11-02T01:59:00;95458.75;;;9.56;82.83
6435;BME280;3250;42.694;23.278;2022-11-02T02:01:26;95463.66;;;9.59;82.93
6435;BME280;3250;42.694;23.278;2022-11-02T02:03:52;95466.41;;;9.51;82.61
6435;BME280;3250;42.694;23.278;2022-11-02T02:06:18;95462.16;;;9.50;83.62
6435;BME280;3250;42.694;23.278;2022-11-02T02:08:46;95460.34;;;9.51;83.04
6435;BME280;3250;42.694;23.278;2022-11-02T02:11:32;95462.47;;;9.40;84.09
6435;BME280;3250;42.694;23.278;2022-11-02T02:14:18;95461.47;;;9.41;83.99
6435;BME280;3250;42.694;23.278;2022-11-02T02:30:26;95451.19;;;9.46;83.79
6435;BME280;3250;42.694;23.278;2022-11-02T02:33:00;95457.50;;;9.52;83.71
6435;BME280;3250;42.694;23.278;2022-11-02T02:38:11;95439.19;;;9.37;83.18
6435;BME280;3250;42.694;23.278;2022-11-02T02:40:54;95450.16;;;9.41;83.20
6435;BME280;3250;42.694;23.278;2022-11-02T02:43:31;95417.81;;;9.19;83.16
6435;BME280;3250;42.694;23.278;2022-11-02T02:46:23;95454.13;;;9.37;83.18
6435;BME280;3250;42.694;23.278;2022-11-02T02:48:51;95455.81;;;9.44;83.23
6435;BME280;3250;42.694;23.278;2022-11-02T02:51:32;95424.56;;;9.28;83.59
6435;BME280;3250;42.694;23.278;2022-11-02T02:54:07;95424.97;;;9.25;83.99
6435;BME280;3250;42.694;23.278;2022-11-02T02:56:39;95463.16;;;9.49;83.78
6435;BME280;3250;42.694;23.278;2022-11-02T02:59:12;95443.81;;;9.35;84.43
6435;BME280;3250;42.694;23.278;2022-11-02T03:01:41;95457.75;;;9.36;83.26
6435;BME280;3250;42.694;23.278;2022-11-02T03:04:11;95462.41;;;9.34;84.31
6435;BME280;3250;42.694;23.278;2022-11-02T03:06:38;95458.97;;;9.33;84.20
6435;BME280;3250;42.694;23.278;2022-11-02T03:09:11;95462.41;;;9.34;83.53
6435;BME280;3250;42.694;23.278;2022-11-02T03:17:45;95465.78;;;9.28;83.89
6435;BME280;3250;42.694;23.278;2022-11-02T03:25:58;95464.28;;;9.19;85.20
6435;BME280;3250;42.694;23.278;2022-11-02T03:31:04;95466.72;;;9.20;84.49
6435;BME280;3250;42.694;23.278;2022-11-02T03:33:36;95457.78;;;9.15;84.29
6435;BME280;3250;42.694;23.278;2022-11-02T03:36:05;95466.19;;;9.10;84.96
6435;BME280;3250;42.694;23.278;2022-11-02T03:41:11;95462.41;;;9.13;84.05
6435;BME280;3250;42.694;23.278;2022-11-02T03:43:38;95438.81;;;8.98;84.16
6435;BME280;3250;42.694;23.278;2022-11-02T03:46:06;95461.41;;;9.14;83.92
6435;BME280;3250;42.694;23.278;2022-11-02T03:48:39;95463.56;;;9.10;83.96
6435;BME280;3250;42.694;23.278;2022-11-02T03:51:10;95445.94;;;9.04;83.90
6435;BME280;3250;42.694;23.278;2022-11-02T03:53:46;95459.91;;;9.04;83.62
6435;BME280;3250;42.694;23.278;2022-11-02T03:56:23;95462.25;;;8.99;83.99
6435;BME280;3250;42.694;23.278;2022-11-02T03:58:50;95456.56;;;8.96;84.38
6435;BME280;3250;42.694;23.278;2022-11-02T04:01:18;95449.94;;;9.00;84.25
6435;BME280;3250;42.694;23.278;2022-11-02T04:03:45;95418.41;;;8.79;84.13
6435;BME280;3250;42.694;23.278;2022-11-02T04:06:12;95450.13;;;8.98;84.88
6435;BME280;3250;42.694;23.278;2022-11-02T04:08:46;95452.56;;;9.00;84.81
6435;BME280;3250;42.694;23.278;2022-11-02T04:11:12;95458.63;;;9.00;84.17
6435;BME280;3250;42.694;23.278;2022-11-02T04:13:56;95443.84;;;8.78;84.06
6435;BME280;3250;42.694;23.278;2022-11-02T04:16:41;95463.38;;;8.90;84.74
6435;BME280;3250;42.694;23.278;2022-11-02T04:19:08;95428.16;;;8.63;85.33
6435;BME280;3250;42.694;23.278;2022-11-02T04:21:53;95417.56;;;8.57;85.40
6435;BME280;3250;42.694;23.278;2022-11-02T04:24:37;95464.38;;;8.89;85.63
6435;BME280;3250;42.694;23.278;2022-11-02T04:27:21;95469.81;;;8.88;85.33
6435;BME280;3250;42.694;23.278;2022-11-02T04:29:46;95466.38;;;8.87;85.41
6435;BME280;3250;42.694;23.278;2022-11-02T04:32:12;95463.56;;;8.89;84.95
6435;BME280;3250;42.694;23.278;2022-11-02T04:34:37;95460.56;;;8.92;84.94
6435;BME280;3250;42.694;23.278;2022-11-02T04:37:03;95392.63;;;8.46;84.83
6435;BME280;3250;42.694;23.278;2022-11-02T04:39:51;95467.72;;;8.83;84.88
6435;BME280;3250;42.694;23.278;2022-11-02T04:42:16;95467.72;;;8.83;85.03
6435;BME280;3250;42.694;23.278;2022-11-02T04:44:42;95451.66;;;8.72;84.73
6435;BME280;3250;42.694;23.278;2022-11-02T04:47:08;95463.16;;;8.70;84.73
6435;BME280;3250;42.694;23.278;2022-11-02T04:49:33;95441.97;;;8.57;84.97
6435;BME280;3250;42.694;23.278;2022-11-02T04:51:58;95458.25;;;8.67;85.47
6435;BME280;3250;42.694;23.278;2022-11-02T04:54:24;95452.19;;;8.67;85.29
6435;BME280;3250;42.694;23.278;2022-11-02T04:56:50;95450.84;;;8.56;85.51
6435;BME280;3250;42.694;23.278;2022-11-02T04:59:15;95447.88;;;8.59;85.37
6435;BME280;3250;42.694;23.278;2022-11-02T05:01:41;95467.41;;;8.72;85.69
6435;BME280;3250;42.694;23.278;2022-11-02T05:04:06;95437.47;;;8.51;85.24
6435;BME280;3250;42.694;23.278;2022-11-02T05:06:31;95440.91;;;8.52;85.88
6435;BME280;3250;42.694;23.278;2022-11-02T05:08:57;95466.94;;;8.68;85.81
6435;BME280;3250;42.694;23.278;2022-11-02T05:11:22;95462.75;;;8.74;85.27
6435;BME280;3250;42.694;23.278;2022-11-02T05:13:48;95470.56;;;8.82;84.71
6435;BME280;3250;42.694;23.278;2022-11-02T05:16:15;95474.59;;;8.84;84.99
6435;BME280;3250;42.694;23.278;2022-11-02T05:18:41;95437.81;;;8.63;85.07
6435;BME280;3250;42.694;23.278;2022-11-02T05:21:08;95472.69;;;8.93;84.59
6435;BME280;3250;42.694;23.278;2022-11-02T05:23:34;95472.25;;;8.89;83.97
6435;BME280;3250;42.694;23.278;2022-11-02T05:26:05;95494.84;;;9.05;85.06
6435;BME280;3250;42.694;23.278;2022-11-02T05:28:31;95481.34;;;9.08;85.51
6435;BME280;3250;42.694;23.278;2022-11-02T05:30:58;95494.50;;;9.29;85.86
6435;BME280;3250;42.694;23.278;2022-11-02T05:33:26;95475.47;;;9.27;85.36
6435;BME280;3250;42.694;23.278;2022-11-02T05:35:53;95485.00;;;9.50;84.58
6435;BME280;3250;42.694;23.278;2022-11-02T05:38:19;95507.25;;;9.75;84.08
6435;BME280;3250;42.694;23.278;2022-11-02T05:40:51;95472.81;;;9.70;83.09
6435;BME280;3250;42.694;23.278;2022-11-02T05:43:16;95458.25;;;9.95;81.84
6435;BME280;3250;42.694;23.278;2022-11-02T05:45:41;95509.69;;;10.60;81.30
6435;BME280;3250;42.694;23.278;2022-11-02T05:48:08;95494.81;;;10.80;78.06
6435;BME280;3250;42.694;23.278;2022-11-02T05:50:33;95519.47;;;11.20;76.53
6435;BME280;3250;42.694;23.278;2022-11-02T05:52:59;95520.13;;;11.42;76.14
6435;BME280;3250;42.694;23.278;2022-11-02T05:55:24;95515.28;;;11.59;75.16
6435;BME280;3250;42.694;23.278;2022-11-02T05:57:50;95528.78;;;11.84;75.01
6435;BME280;3250;42.694;23.278;2022-11-02T06:00:16;95461.38;;;11.88;73.77
6435;BME280;3250;42.694;23.278;2022-11-02T06:02:42;95515.88;;;12.79;71.65
6435;BME280;3250;42.694;23.278;2022-11-02T06:05:07;95537.19;;;13.49;69.54
6435;BME280;3250;42.694;23.278;2022-11-02T06:07:33;95540.59;;;13.87;68.26
6435;BME280;3250;42.694;23.278;2022-11-02T06:09:58;95526.75;;;14.17;66.20
6435;BME280;3250;42.694;23.278;2022-11-02T06:12:23;95543.81;;;14.89;64.75
6435;BME280;3250;42.694;23.278;2022-11-02T06:14:49;95539.06;;;15.64;61.99
6435;BME280;3250;42.694;23.278;2022-11-02T06:17:14;95544.09;;;16.37;58.83
6435;BME280;3250;42.694;23.278;2022-11-02T06:19:40;95481.94;;;16.49;57.14
6435;BME280;3250;42.694;23.278;2022-11-02T06:22:05;95494.75;;;16.87;56.30
6435;BME280;3250;42.694;23.278;2022-11-02T06:24:32;95552.31;;;17.57;54.82
6435;BME280;3250;42.694;23.278;2022-11-02T06:26:58;95517.44;;;17.58;54.58
6435;BME280;3250;42.694;23.278;2022-11-02T06:29:24;95550.03;;;17.89;54.14
6435;BME280;3250;42.694;23.278;2022-11-02T06:31:49;95551.16;;;17.93;53.54
6435;BME280;3250;42.694;23.278;2022-11-02T06:34:14;95530.66;;;18.10;52.73
6435;BME280;3250;42.694;23.278;2022-11-02T06:36:40;95545.00;;;18.71;51.28
6435;BME280;3250;42.694;23.278;2022-11-02T06:39:05;95553.09;;;19.36;49.53
6435;BME280;3250;42.694;23.278;2022-11-02T06:41:31;95549.25;;;20.24;47.88
6435;BME280;3250;42.694;23.278;2022-11-02T06:43:56;95536.97;;;21.34;44.96
6435;BME280;3250;42.694;23.278;2022-11-02T06:46:21;95554.16;;;22.56;41.83
6435;BME280;3250;42.694;23.278;2022-11-02T06:48:47;95528.44;;;23.65;39.30
6435;BME280;3250;42.694;23.278;2022-11-02T06:51:12;95544.31;;;24.84;36.82
6435;BME280;3250;42.694;23.278;2022-11-02T06:53:38;95534.41;;;25.80;35.84
6435;BME280;3250;42.694;23.278;2022-11-02T06:56:03;95547.72;;;26.70;34.33
6435;BME280;3250;42.694;23.278;2022-11-02T06:58:29;95555.50;;;27.50;33.33
6435;BME280;3250;42.694;23.278;2022-11-02T07:01:00;95522.59;;;27.98;31.30
6435;BME280;3250;42.694;23.278;2022-11-02T07:03:26;95549.84;;;28.51;30.91
6435;BME280;3250;42.694;23.278;2022-11-02T07:05:52;95539.28;;;28.85;30.45
6435;BME280;3250;42.694;23.278;2022-11-02T07:08:18;95554.19;;;29.27;29.45
6435;BME280;3250;42.694;23.278;2022-11-02T07:10:44;95544.97;;;29.77;28.66
6435;BME280;3250;42.694;23.278;2022-11-02T07:13:10;95544.59;;;30.00;27.05
6435;BME280;3250;42.694;23.278;2022-11-02T07:15:35;95541.56;;;30.36;27.35
6435;BME280;3250;42.694;23.278;2022-11-02T07:18:01;95539.38;;;30.56;26.70
6435;BME280;3250;42.694;23.278;2022-11-02T07:20:26;95539.22;;;30.44;26.74
6435;BME280;3250;42.694;23.278;2022-11-02T07:22:56;95543.66;;;30.14;27.56
6435;BME280;3250;42.694;23.278;2022-11-02T07:25:23;95539.31;;;29.47;27.73
6435;BME280;3250;42.694;23.278;2022-11-02T07:27:49;95536.06;;;28.83;29.52
6435;BME280;3250;42.694;23.278;2022-11-02T07:30:15;95535.38;;;28.20;29.96
6435;BME280;3250;42.694;23.278;2022-11-02T07:32:42;95518.00;;;27.43;30.31
6435;BME280;3250;42.694;23.278;2022-11-02T07:35:08;95527.78;;;26.98;31.47
6435;BME280;3250;42.694;23.278;2022-11-02T07:37:35;95504.38;;;26.43;32.28
6435;BME280;3250;42.694;23.278;2022-11-02T07:40:01;95526.38;;;26.36;32.11
6435;BME280;3250;42.694;23.278;2022-11-02T07:42:27;95522.63;;;25.76;33.98
6435;BME280;3250;42.694;23.278;2022-11-02T07:44:52;95510.00;;;25.24;35.14
6435;BME280;3250;42.694;23.278;2022-11-02T07:47:18;95471.03;;;24.58;35.04
6435;BME280;3250;42.694;23.278;2022-11-02T07:49:43;95519.81;;;24.52;35.82
6435;BME280;3250;42.694;23.278;2022-11-02T07:52:08;95522.66;;;24.31;36.58
6435;BME280;3250;42.694;23.278;2022-11-02T07:54:34;95501.97;;;23.83;37.33
6435;BME280;3250;42.694;23.278;2022-11-02T07:56:59;95516.78;;;23.80;38.63
6435;BME280;3250;42.694;23.278;2022-11-02T07:59:25;95514.00;;;23.51;37.68
6435;BME280;3250;42.694;23.278;2022-11-02T08:01:50;95515.44;;;23.08;39.11
6435;BME280;3250;42.694;23.278;2022-11-02T08:04:15;95513.34;;;22.75;39.65
6435;BME280;3250;42.694;23.278;2022-11-02T08:06:41;95506.91;;;22.71;39.52
6435;BME280;3250;42.694;23.278;2022-11-02T08:09:06;95505.56;;;22.53;39.57
6435;BME280;3250;42.694;23.278;2022-11-02T08:11:31;95495.91;;;22.32;40.04
6435;BME280;3250;42.694;23.278;2022-11-02T08:13:57;95496.72;;;22.37;40.24
6435;BME280;3250;42.694;23.278;2022-11-02T08:16:23;95492.16;;;22.38;39.58
6435;BME280;3250;42.694;23.278;2022-11-02T08:18:48;95494.84;;;22.43;39.53
6435;BME280;3250;42.694;23.278;2022-11-02T08:21:13;95496.97;;;22.51;41.46
6435;BME280;3250;42.694;23.278;2022-11-02T08:23:39;95488.91;;;22.51;41.03
6435;BME280;3250;42.694;23.278;2022-11-02T08:26:04;95488.41;;;22.54;40.56
6435;BME280;3250;42.694;23.278;2022-11-02T08:28:31;95475.50;;;22.51;40.62
6435;BME280;3250;42.694;23.278;2022-11-02T08:30:59;95483.00;;;22.49;39.88
6435;BME280;3250;42.694;23.278;2022-11-02T08:33:25;95474.16;;;22.58;40.19
6435;BME280;3250;42.694;23.278;2022-11-02T08:35:50;95472.81;;;22.81;39.90
6435;BME280;3250;42.694;23.278;2022-11-02T08:38:17;95472.25;;;22.69;39.27
6435;BME280;3250;42.694;23.278;2022-11-02T08:40:46;95461.00;;;22.52;40.05
6435;BME280;3250;42.694;23.278;2022-11-02T08:43:13;95482.47;;;22.72;39.75
6435;BME280;3250;42.694;23.278;2022-11-02T08:45:40;95476.81;;;22.89;40.07
6435;BME280;3250;42.694;23.278;2022-11-02T08:48:06;95462.56;;;22.93;39.89
6435;BME280;3250;42.694;23.278;2022-11-02T08:50:32;95455.34;;;22.89;39.26
6435;BME280;3250;42.694;23.278;2022-11-02T08:52:57;95467.38;;;23.02;38.65
6435;BME280;3250;42.694;23.278;2022-11-02T08:55:23;95464.44;;;22.93;39.70
6435;BME280;3250;42.694;23.278;2022-11-02T08:57:50;95464.47;;;22.88;40.32
6435;BME280;3250;42.694;23.278;2022-11-02T09:00:18;95459.13;;;22.78;40.12
6435;BME280;3250;42.694;23.278;2022-11-02T09:03:17;95435.50;;;22.59;39.45
6435;BME280;3250;42.694;23.278;2022-11-02T09:05:44;95451.84;;;22.83;40.25
6435;BME280;3250;42.694;23.278;2022-11-02T09:08:13;95450.44;;;23.01;40.83
6435;BME280;3250;42.694;23.278;2022-11-02T09:10:39;95450.41;;;23.11;41.05
6435;BME280;3250;42.694;23.278;2022-11-02T09:13:06;95457.66;;;23.11;39.60
6435;BME280;3250;42.694;23.278;2022-11-02T09:15:35;95455.75;;;23.21;40.85
6435;BME280;3250;42.694;23.278;2022-11-02T09:18:01;95449.59;;;23.16;39.41
6435;BME280;3250;42.694;23.278;2022-11-02T09:20:27;95442.06;;;23.18;39.24
6435;BME280;3250;42.694;23.278;2022-11-02T09:22:52;95443.41;;;23.20;39.26
6435;BME280;3250;42.694;23.278;2022-11-02T09:25:18;95432.63;;;23.25;39.67
6435;BME280;3250;42.694;23.278;2022-11-02T09:27:43;95429.41;;;23.18;39.40
6435;BME280;3250;42.694;23.278;2022-11-02T09:30:10;95422.75;;;23.16;38.97
6435;BME280;3250;42.694;23.278;2022-11-02T09:32:36;95423.28;;;23.13;39.65
6435;BME280;3250;42.694;23.278;2022-11-02T09:35:06;95421.94;;;23.15;39.03
6435;BME280;3250;42.694;23.278;2022-11-02T09:37:31;95417.38;;;23.16;40.33
6435;BME280;3250;42.694;23.278;2022-11-02T09:39:57;95419.19;;;23.25;40.25
6435;BME280;3250;42.694;23.278;2022-11-02T09:43:00;95411.16;;;23.20;39.26
6435;BME280;3250;42.694;23.278;2022-11-02T09:45:28;95409.53;;;23.19;39.51
6435;BME280;3250;42.694;23.278;2022-11-02T09:48:01;95414.41;;;23.17;39.33
6435;BME280;3250;42.694;23.278;2022-11-02T09:50:41;95400.72;;;23.14;38.38
6435;BME280;3250;42.694;23.278;2022-11-02T09:53:13;95380.09;;;22.99;39.00
6435;BME280;3250;42.694;23.278;2022-11-02T09:55:47;95394.03;;;23.01;38.81
6435;BME280;3250;42.694;23.278;2022-11-02T09:58:17;95392.72;;;22.99;39.32
6435;BME280;3250;42.694;23.278;2022-11-02T10:00:47;95389.53;;;22.91;39.21
6435;BME280;3250;42.694;23.278;2022-11-02T10:03:20;95395.97;;;22.85;39.59
6435;BME280;3250;42.694;23.278;2022-11-02T10:13:54;95372.66;;;22.81;40.35
6435;BME280;3250;42.694;23.278;2022-11-02T10:16:35;95374.81;;;22.79;39.34
6435;BME280;3250;42.694;23.278;2022-11-02T10:19:04;95362.19;;;22.79;40.06
6435;BME280;3250;42.694;23.278;2022-11-02T10:21:37;95360.53;;;22.83;40.72
6435;BME280;3250;42.694;23.278;2022-11-02T10:24:37;95358.97;;;22.82;40.16
6435;BME280;3250;42.694;23.278;2022-11-02T10:27:13;95349.31;;;22.76;40.41
6435;BME280;3250;42.694;23.278;2022-11-02T10:32:14;95346.63;;;22.76;40.99
6435;BME280;3250;42.694;23.278;2022-11-02T10:34:41;95328.63;;;22.67;40.45
6435;BME280;3250;42.694;23.278;2022-11-02T10:45:50;95328.00;;;22.95;41.33
6435;BME280;3250;42.694;23.278;2022-11-02T10:51:12;95317.38;;;23.24;39.74
6435;BME280;3250;42.694;23.278;2022-11-02T10:53:43;95322.91;;;23.38;39.00
6435;BME280;3250;42.694;23.278;2022-11-02T10:56:15;95322.31;;;23.46;39.95
6435;BME280;3250;42.694;23.278;2022-11-02T10:59:08;95315.28;;;23.55;37.66
6435;BME280;3250;42.694;23.278;2022-11-02T11:01:34;95317.16;;;23.59;37.72
6435;BME280;3250;42.694;23.278;2022-11-02T11:04:02;95310.03;;;23.74;37.02
6435;BME280;3250;42.694;23.278;2022-11-02T11:06:29;95308.91;;;23.80;37.27
6435;BME280;3250;42.694;23.278;2022-11-02T11:09:00;95285.78;;;23.79;36.84
6435;BME280;3250;42.694;23.278;2022-11-02T11:11:30;95262.50;;;23.69;36.30
6435;BME280;3250;42.694;23.278;2022-11-02T11:14:26;95288.34;;;23.94;36.49
6435;BME280;3250;42.694;23.278;2022-11-02T11:16:52;95289.88;;;24.00;35.60
6435;BME280;3250;42.694;23.278;2022-11-02T11:21:44;95289.19;;;24.13;35.12
6435;BME280;3250;42.694;23.278;2022-11-02T11:24:29;95280.81;;;24.20;32.81
6435;BME280;3250;42.694;23.278;2022-11-02T11:27:00;95273.53;;;24.20;31.62
6435;BME280;3250;42.694;23.278;2022-11-02T11:29:29;95277.53;;;24.28;32.68
6435;BME280;3250;42.694;23.278;2022-11-02T11:31:55;95272.13;;;24.28;31.80
6435;BME280;3250;42.694;23.278;2022-11-02T11:34:26;95264.63;;;24.25;31.58
6435;BME280;3250;42.694;23.278;2022-11-02T11:36:52;95269.16;;;24.29;31.05
6435;BME280;3250;42.694;23.278;2022-11-02T11:39:29;95263.72;;;24.34;31.48
6435;BME280;3250;42.694;23.278;2022-11-02T11:41:56;95264.81;;;24.33;30.93
6435;BME280;3250;42.694;23.278;2022-11-02T11:44:22;95236.16;;;24.19;30.85
6435;BME280;3250;42.694;23.278;2022-11-02T11:46:50;95254.75;;;24.39;31.14
6435;BME280;3250;42.694;23.278;2022-11-02T11:49:32;95257.13;;;24.46;31.03
6435;BME280;3250;42.694;23.278;2022-11-02T11:52:00;95256.25;;;24.50;30.60
6435;BME280;3250;42.694;23.278;2022-11-02T11:54:32;95230.78;;;24.42;30.30
6435;BME280;3250;42.694;23.278;2022-11-02T11:57:19;95247.09;;;24.51;29.97
6435;BME280;3250;42.694;23.278;2022-11-02T11:59:48;95241.41;;;24.53;30.79
6435;BME280;3250;42.694;23.278;2022-11-02T12:02:26;95240.84;;;24.56;30.88
6435;BME280;3250;42.694;23.278;2022-11-02T12:05:11;95230.66;;;24.53;31.45
6435;BME280;3250;42.694;23.278;2022-11-02T12:08:20;95234.88;;;24.59;31.20
6435;BME280;3250;42.694;23.278;2022-11-02T12:16:41;95221.34;;;24.64;31.55
6435;BME280;3250;42.694;23.278;2022-11-02T12:21:57;95223.16;;;24.68;31.15
6435;BME280;3250;42.694;23.278;2022-11-02T12:24:42;95217.25;;;24.66;31.47
6435;BME280;3250;42.694;23.278;2022-11-02T12:27:58;95221.03;;;24.65;31.08
6435;BME280;3250;42.694;23.278;2022-11-02T12:47:04;95197.47;;;24.38;31.39
6435;BME280;3250;42.694;23.278;2022-11-02T12:54:55;95170.59;;;24.10;32.42
6435;BME280;3250;42.694;23.278;2022-11-02T12:57:24;95183.50;;;24.13;32.30
6435;BME280;3250;42.694;23.278;2022-11-02T12:59:54;95191.25;;;24.14;32.10
6435;BME280;3250;42.694;23.278;2022-11-02T13:02:32;95184.91;;;24.05;31.82
6435;BME280;3250;42.694;23.278;2022-11-02T13:05:08;95181.13;;;24.06;31.96
6435;BME280;3250;42.694;23.278;2022-11-02T13:10:29;95182.00;;;24.01;32.15
6435;BME280;3250;42.694;23.278;2022-11-02T13:12:59;95184.72;;;23.96;31.85
6435;BME280;3250;42.694;23.278;2022-11-02T13:15:26;95186.69;;;23.91;32.01
6435;BME280;3250;42.694;23.278;2022-11-02T13:17:59;95183.28;;;23.85;32.15
6435;BME280;3250;42.694;23.278;2022-11-02T13:20:44;95182.22;;;23.81;32.33
6435;BME280;3250;42.694;23.278;2022-11-02T13:23:16;95186.34;;;23.74;32.49
6435;BME280;3250;42.694;23.278;2022-11-02T13:25:48;95179.97;;;23.64;32.20
6435;BME280;3250;42.694;23.278;2022-11-02T13:28:46;95184.03;;;23.62;32.48
6435;BME280;3250;42.694;23.278;2022-11-02T13:31:29;95168.03;;;23.52;32.99
6435;BME280;3250;42.694;23.278;2022-11-02T13:33:59;95176.09;;;23.52;32.88
6435;BME280;3250;42.694;23.278;2022-11-02T13:36:27;95167.84;;;23.38;33.05
6435;BME280;3250;42.694;23.278;2022-11-02T13:39:00;95183.06;;;23.48;33.00
6435;BME280;3250;42.694;23.278;2022-11-02T13:49:33;95177.66;;;23.24;32.61
6435;BME280;3250;42.694;23.278;2022-11-02T13:52:03;95175.78;;;23.19;32.71
6435;BME280;3250;42.694;23.278;2022-11-02T13:54:39;95163.31;;;23.05;32.85
6435;BME280;3250;42.694;23.278;2022-11-02T13:59:44;95172.69;;;23.07;33.03
6435;BME280;3250;42.694;23.278;2022-11-02T14:02:14;95176.47;;;23.01;33.16
6435;BME280;3250;42.694;23.278;2022-11-02T14:04:42;95177.34;;;22.97;33.31
6435;BME280;3250;42.694;23.278;2022-11-02T14:07:20;95178.22;;;22.87;33.43
6435;BME280;3250;42.694;23.278;2022-11-02T14:09:48;95169.34;;;22.86;33.70
6435;BME280;3250;42.694;23.278;2022-11-02T14:14:42;95180.44;;;22.75;33.73
6435;BME280;3250;42.694;23.278;2022-11-02T14:22:16;95156.19;;;22.41;34.45
6435;BME280;3250;42.694;23.278;2022-11-02T14:32:24;95173.44;;;22.25;35.32
6435;BME280;3250;42.694;23.278;2022-11-02T14:46:52;95195.59;;;21.86;36.06
6435;BME280;3250;42.694;23.278;2022-11-02T14:49:31;95191.34;;;21.70;36.23
6435;BME280;3250;42.694;23.278;2022-11-02T14:52:27;95194.00;;;21.65;36.51
6435;BME280;3250;42.694;23.278;2022-11-02T14:55:03;95197.00;;;21.53;36.98
6435;BME280;3250;42.694;23.278;2022-11-02T14:57:38;95200.75;;;21.42;37.06
6435;BME280;3250;42.694;23.278;2022-11-02T15:00:32;95177.19;;;21.14;37.44
6435;BME280;3250;42.694;23.278;2022-11-02T15:03:00;95190.63;;;21.19;37.90
6435;BME280;3250;42.694;23.278;2022-11-02T15:05:36;95196.75;;;21.09;38.06
6435;BME280;3250;42.694;23.278;2022-11-02T15:08:29;95203.16;;;21.03;37.42
6435;BME280;3250;42.694;23.278;2022-11-02T15:10:56;95206.09;;;20.96;37.98
6435;BME280;3250;42.694;23.278;2022-11-02T15:13:32;95210.38;;;20.87;38.28
6435;BME280;3250;42.694;23.278;2022-11-02T15:31:49;95209.53;;;19.94;41.98
6435;BME280;3250;42.694;23.278;2022-11-02T15:34:17;95214.56;;;19.85;42.08
6435;BME280;3250;42.694;23.278;2022-11-02T15:36:45;95207.56;;;19.74;42.51
6435;BME280;3250;42.694;23.278;2022-11-02T15:39:11;95200.50;;;19.53;42.77
6435;BME280;3250;42.694;23.278;2022-11-02T15:42:14;95211.91;;;19.43;43.05
6435;BME280;3250;42.694;23.278;2022-11-02T15:45:29;95219.81;;;19.28;43.83
6435;BME280;3250;42.694;23.278;2022-11-02T15:50:38;95225.56;;;19.15;43.84
6435;BME280;3250;42.694;23.278;2022-11-02T15:53:17;95226.28;;;19.05;44.09
6435;BME280;3250;42.694;23.278;2022-11-02T15:56:20;95222.00;;;19.04;44.40
6435;BME280;3250;42.694;23.278;2022-11-02T15:59:10;95231.84;;;18.99;44.20
6435;BME280;3250;42.694;23.278;2022-11-02T16:01:39;95216.44;;;18.79;44.34